createdAt,value
2023-07-04T00:01:13.671Z,96473.00
2023-07-04T00:03:15.702Z,96466.34
2023-07-04T00:05:17.940Z,96467.84
2023-07-04T00:07:21.934Z,96471.19
2023-07-04T00:09:23.982Z,96471.47
2023-07-04T00:11:25.635Z,96469.81
2023-07-04T00:13:28.457Z,96468.47
2023-07-04T00:15:30.374Z,96468.59
2023-07-04T00:17:32.497Z,96466.19
2023-07-04T00:19:34.222Z,96467.25
2023-07-04T00:21:37.096Z,96465.47
2023-07-04T00:23:39.114Z,96472.25
2023-07-04T00:25:41.330Z,96474.69
2023-07-04T00:27:42.862Z,96466.81
2023-07-04T00:29:44.435Z,96466.53
2023-07-04T00:31:46.633Z,96475.75
2023-07-04T00:33:48.615Z,96472.13
2023-07-04T00:35:51.009Z,96476.84
2023-07-04T00:37:53.405Z,96476.38
2023-07-04T00:39:57.417Z,96475.59
2023-07-04T00:42:04.113Z,96473.66
2023-07-04T00:44:11.650Z,96480.03
2023-07-04T00:46:17.120Z,96482.16
2023-07-04T00:48:18.767Z,96473.66
2023-07-04T00:50:28.065Z,96479.56
2023-07-04T00:52:34.797Z,96477.44
2023-07-04T00:54:41.765Z,96480.03
2023-07-04T00:56:44.283Z,96476.41
2023-07-04T00:58:46.505Z,96486.38
2023-07-04T01:00:48.992Z,96479.13
2023-07-04T01:02:54.226Z,96480.31
2023-07-04T01:04:57.544Z,96482.91
2023-07-04T01:07:15.205Z,96487.00
2023-07-04T01:09:19.776Z,96498.22
2023-07-04T01:11:30.234Z,96486.88
2023-07-04T01:13:38.234Z,96491.69
2023-07-04T01:15:39.851Z,96493.06
2023-07-04T01:17:44.791Z,96487.00
2023-07-04T01:19:47.461Z,96492.16
2023-07-04T01:21:53.791Z,96497.00
2023-07-04T01:24:18.960Z,96494.28
2023-07-04T01:26:31.399Z,96493.63
2023-07-04T01:28:33.073Z,96497.72
2023-07-04T01:30:40.682Z,96497.41
2023-07-04T01:32:44.205Z,96495.59
2023-07-04T01:34:47.018Z,96498.56
2023-07-04T01:36:50.452Z,96496.00
2023-07-04T01:38:52.868Z,96493.53
2023-07-04T01:40:54.703Z,96509.97
2023-07-04T01:42:56.704Z,96508.28
2023-07-04T01:45:01.321Z,96501.19
2023-07-04T01:47:03.644Z,96504.59
2023-07-04T01:49:05.431Z,96513.16
2023-07-04T01:51:09.056Z,96512.16
2023-07-04T01:53:10.900Z,96509.44
2023-07-04T01:55:14.644Z,96512.31
2023-07-04T01:57:16.271Z,96522.31
2023-07-04T01:59:17.805Z,96511.31
2023-07-04T02:01:19.473Z,96519.47
2023-07-04T02:03:21.292Z,96512.84
2023-07-04T02:05:23.239Z,96517.31
2023-07-04T02:07:24.785Z,96522.00
2023-07-04T02:09:27.442Z,96521.75
2023-07-04T02:11:29.008Z,96519.34
2023-07-04T02:13:30.597Z,96523.94
2023-07-04T02:15:33.682Z,96525.94
2023-07-04T02:17:35.436Z,96518.78
2023-07-04T02:19:37.433Z,96519.09
2023-07-04T02:21:39.505Z,96524.78
2023-07-04T02:23:41.227Z,96526.56
2023-07-04T02:25:43.412Z,96518.94
2023-07-04T02:27:45.124Z,96527.44
2023-07-04T02:29:50.060Z,96526.81
2023-07-04T02:31:51.703Z,96510.63
2023-07-04T02:33:53.606Z,96526.06
2023-07-04T02:35:55.580Z,96522.28
2023-07-04T02:37:58.343Z,96520.22
2023-07-04T02:40:00.204Z,96525.59
2023-07-04T02:42:03.205Z,96516.31
2023-07-04T02:44:05.342Z,96507.75
2023-07-04T02:46:08.820Z,96513.31
2023-07-04T02:48:15.573Z,96511.78
2023-07-04T02:50:18.599Z,96511.38
2023-07-04T02:52:24.869Z,96517.31
2023-07-04T02:54:26.510Z,96510.38
2023-07-04T02:56:28.187Z,96514.09
2023-07-04T02:58:29.820Z,96522.31
2023-07-04T03:00:32.062Z,96513.66
2023-07-04T03:02:33.768Z,96511.69
2023-07-04T03:04:37.445Z,96521.38
2023-07-04T03:06:39.077Z,96513.63
2023-07-04T03:08:41.894Z,96521.69
2023-07-04T03:10:47.636Z,96517.44
2023-07-04T03:12:52.655Z,96522.00
2023-07-04T03:14:54.327Z,96522.72
2023-07-04T03:16:56.980Z,96516.81
2023-07-04T03:18:59.498Z,96527.53
2023-07-04T03:21:02.258Z,96528.63
2023-07-04T03:23:04.864Z,96526.47
2023-07-04T03:25:07.785Z,96531.88
2023-07-04T03:27:10.376Z,96542.19
2023-07-04T03:29:12.478Z,96532.97
2023-07-04T03:31:14.505Z,96533.53
2023-07-04T03:33:16.384Z,96534.69
2023-07-04T03:35:18.250Z,96545.69
2023-07-04T03:37:19.803Z,96547.97
2023-07-04T03:39:21.400Z,96546.97
2023-07-04T03:41:24.410Z,96548.06
2023-07-04T03:43:26.588Z,96551.00
2023-07-04T03:45:28.238Z,96557.63
2023-07-04T03:47:29.967Z,96547.09
2023-07-04T03:49:31.628Z,96554.69
2023-07-04T03:51:33.297Z,96555.25
2023-07-04T03:53:38.431Z,96561.75
2023-07-04T03:55:40.883Z,96552.63
2023-07-04T03:57:42.639Z,96550.47
2023-07-04T03:59:44.292Z,96564.78
2023-07-04T04:01:46.386Z,96560.00
2023-07-04T04:03:48.393Z,96561.19
2023-07-04T04:05:50.435Z,96564.34
2023-07-04T04:07:52.032Z,96564.03
2023-07-04T04:09:53.715Z,96565.88
2023-07-04T04:11:55.325Z,96569.56
2023-07-04T04:13:57.080Z,96560.34
2023-07-04T04:15:58.886Z,96554.03
2023-07-04T04:18:00.922Z,96559.47
2023-07-04T04:20:07.379Z,96562.41
2023-07-04T04:22:09.080Z,96564.03
2023-07-04T04:24:10.661Z,96569.09
2023-07-04T04:26:15.769Z,96560.63
2023-07-04T04:28:17.526Z,96564.09
2023-07-04T04:30:19.188Z,96566.03
2023-07-04T04:32:23.030Z,96570.06
2023-07-04T04:34:25.050Z,96572.41
2023-07-04T04:36:26.634Z,96572.03
2023-07-04T04:38:28.188Z,96574.31
2023-07-04T04:40:29.844Z,96570.91
2023-07-04T04:42:35.696Z,96569.19
2023-07-04T04:44:40.883Z,96576.81
2023-07-04T04:46:45.883Z,96579.72
2023-07-04T04:48:47.956Z,96581.22
2023-07-04T04:50:49.568Z,96582.91
2023-07-04T04:52:52.164Z,96592.19
2023-07-04T04:54:53.704Z,96590.09
2023-07-04T04:56:55.329Z,96590.91
2023-07-04T04:58:57.191Z,96589.25
2023-07-04T05:01:07.461Z,96592.94
2023-07-04T05:03:08.993Z,96590.38
2023-07-04T05:05:10.570Z,96586.16
2023-07-04T05:07:13.950Z,96600.56
2023-07-04T05:09:15.783Z,96599.38
2023-07-04T05:11:18.042Z,96601.50
2023-07-04T05:13:49.154Z,96591.22
2023-07-04T05:15:59.121Z,96609.44
2023-07-04T05:18:00.787Z,96602.78
2023-07-04T05:20:02.560Z,96600.50
2023-07-04T05:22:05.401Z,96600.22
2023-07-04T05:24:06.982Z,96598.84
2023-07-04T05:26:12.275Z,96598.13
2023-07-04T05:28:13.788Z,96609.78
2023-07-04T05:30:15.569Z,96607.53
2023-07-04T05:32:17.140Z,96598.25
2023-07-04T05:34:18.760Z,96607.97
2023-07-04T05:36:25.449Z,96614.03
2023-07-04T05:38:26.985Z,96608.31
2023-07-04T05:40:29.139Z,96611.06
2023-07-04T05:42:30.770Z,96611.50
2023-07-04T05:44:32.514Z,96605.88
2023-07-04T05:46:36.151Z,96606.50
2023-07-04T05:48:38.745Z,96615.59
2023-07-04T05:50:53.806Z,96616.03
2023-07-04T05:52:55.486Z,96618.00
2023-07-04T05:54:57.226Z,96623.94
2023-07-04T05:56:58.792Z,96619.06
2023-07-04T05:59:02.738Z,96623.00
2023-07-04T06:01:10.352Z,96619.78
2023-07-04T06:03:12.386Z,96625.84
2023-07-04T06:05:14.050Z,96627.66
2023-07-04T06:07:15.592Z,96632.19
2023-07-04T06:09:18.120Z,96635.81
2023-07-04T06:11:21.215Z,96636.97
2023-07-04T06:13:22.842Z,96642.56
2023-07-04T06:15:24.603Z,96640.13
2023-07-04T06:17:26.660Z,96637.13
2023-07-04T06:19:28.370Z,96639.53
2023-07-04T06:21:42.390Z,96637.16
2023-07-04T06:23:46.488Z,96644.28
2023-07-04T06:25:56.917Z,96647.59
2023-07-04T06:27:58.553Z,96649.72
2023-07-04T06:30:00.168Z,96643.56
2023-07-04T06:32:01.804Z,96643.09
2023-07-04T06:34:03.378Z,96645.25
2023-07-04T06:36:09.614Z,96653.72
2023-07-04T06:38:11.200Z,96641.09
2023-07-04T06:40:12.799Z,96647.94
2023-07-04T06:42:14.652Z,96653.53
2023-07-04T06:44:20.683Z,96661.31
2023-07-04T06:46:23.230Z,96658.13
2023-07-04T06:48:26.255Z,96662.00
2023-07-04T06:50:30.362Z,96662.91
2023-07-04T06:52:33.920Z,96666.88
2023-07-04T06:54:35.796Z,96667.84
2023-07-04T06:56:39.169Z,96662.84
2023-07-04T06:58:43.832Z,96666.94
2023-07-04T07:00:45.566Z,96665.97
2023-07-04T07:02:52.051Z,96673.56
2023-07-04T07:04:53.881Z,96665.88
2023-07-04T07:06:55.536Z,96670.38
2023-07-04T07:08:57.678Z,96672.09
2023-07-04T07:11:02.487Z,96676.97
2023-07-04T07:13:05.118Z,96678.44
2023-07-04T07:15:07.221Z,96680.28
2023-07-04T07:17:09.446Z,96679.97
2023-07-04T07:19:13.850Z,96673.50
2023-07-04T07:21:21.244Z,96693.94
2023-07-04T07:23:23.555Z,96679.81
2023-07-04T07:25:25.192Z,96682.16
2023-07-04T07:27:26.871Z,96685.09
2023-07-04T07:29:28.796Z,96677.13
2023-07-04T07:31:34.350Z,96691.06
2023-07-04T07:33:39.330Z,96690.63
2023-07-04T07:35:40.896Z,96700.19
2023-07-04T07:37:42.680Z,96700.28
2023-07-04T07:39:45.190Z,96698.84
2023-07-04T07:41:48.290Z,96698.06
2023-07-04T07:43:49.921Z,96697.66
2023-07-04T07:45:51.523Z,96690.56
2023-07-04T07:47:53.231Z,96697.75
2023-07-04T07:49:55.467Z,96687.63
2023-07-04T07:51:57.950Z,96688.09
2023-07-04T07:54:01.526Z,96694.78
2023-07-04T07:56:07.391Z,96693.09
2023-07-04T07:58:09.850Z,96684.13
2023-07-04T08:00:12.004Z,96691.97
2023-07-04T08:02:16.098Z,96691.19
2023-07-04T08:04:17.837Z,96696.03
2023-07-04T08:06:21.243Z,96694.41
2023-07-04T08:08:22.773Z,96697.91
2023-07-04T08:10:25.885Z,96692.25
2023-07-04T08:12:27.594Z,96685.03
2023-07-04T08:14:29.225Z,96693.16
2023-07-04T08:16:41.397Z,96694.34
2023-07-04T08:18:45.516Z,96688.88
2023-07-04T08:21:02.157Z,96699.06
2023-07-04T08:23:05.007Z,96690.97
2023-07-04T08:25:06.814Z,96694.66
2023-07-04T08:27:08.516Z,96688.13
2023-07-04T08:29:10.386Z,96685.72
2023-07-04T08:31:12.904Z,96689.09
2023-07-04T08:33:17.940Z,96689.16
2023-07-04T08:35:19.556Z,96690.44
2023-07-04T08:37:21.152Z,96689.47
2023-07-04T08:39:22.750Z,96691.19
2023-07-04T08:41:44.066Z,96690.63
2023-07-04T08:43:57.227Z,96705.41
2023-07-04T08:45:59.269Z,96691.66
2023-07-04T08:48:01.023Z,96694.34
2023-07-04T08:50:14.418Z,96685.53
2023-07-04T08:52:18.935Z,96688.22
2023-07-04T08:54:21.944Z,96692.38
2023-07-04T08:56:34.591Z,96701.34
2023-07-04T08:59:06.458Z,96687.41
2023-07-04T09:01:18.846Z,96690.66
2023-07-04T09:03:40.272Z,96699.41
2023-07-04T09:05:52.127Z,96695.97
2023-07-04T09:08:18.297Z,96689.59
2023-07-04T09:10:33.146Z,96699.72
2023-07-04T09:12:37.152Z,96688.59
2023-07-04T09:14:52.453Z,96692.81
2023-07-04T09:16:55.186Z,96693.53
2023-07-04T09:19:03.016Z,96702.75
2023-07-04T09:21:12.213Z,96702.47
2023-07-04T09:23:22.128Z,96699.19
2023-07-04T09:25:24.105Z,96701.66
2023-07-04T09:27:26.498Z,96702.72
2023-07-04T09:29:28.453Z,96696.06
2023-07-04T09:31:33.299Z,96700.53
2023-07-04T09:33:37.024Z,96704.47
2023-07-04T09:35:39.079Z,96697.50
2023-07-04T09:37:57.817Z,96703.47
2023-07-04T09:40:02.298Z,96693.13
2023-07-04T09:42:18.398Z,96701.66
2023-07-04T09:44:32.269Z,96694.25
2023-07-04T09:46:34.472Z,96693.69
2023-07-04T09:48:36.603Z,96695.00
2023-07-04T09:50:39.397Z,96698.25
2023-07-04T09:52:42.259Z,96692.28
2023-07-04T09:54:44.750Z,96688.59
2023-07-04T09:56:46.411Z,96691.00
2023-07-04T09:58:48.004Z,96695.19
2023-07-04T10:01:07.738Z,96692.28
2023-07-04T10:03:10.561Z,96697.78
2023-07-04T10:05:30.164Z,96698.97
2023-07-04T10:07:31.997Z,96695.31
2023-07-04T10:09:34.844Z,96694.09
2023-07-04T10:11:41.262Z,96689.84
2023-07-04T10:13:42.928Z,96693.34
2023-07-04T10:15:46.482Z,96696.88
2023-07-04T10:17:48.151Z,96692.09
2023-07-04T10:19:52.519Z,96697.88
2023-07-04T10:21:54.510Z,96693.56
2023-07-04T10:23:55.958Z,96696.06
2023-07-04T10:26:00.454Z,96695.06
2023-07-04T10:28:15.429Z,96698.88
2023-07-04T10:30:21.848Z,96694.31
2023-07-04T10:32:25.582Z,96693.34
2023-07-04T10:34:28.527Z,96687.56
2023-07-04T10:36:34.215Z,96681.03
2023-07-04T10:38:48.462Z,96684.81
2023-07-04T10:40:51.442Z,96683.81
2023-07-04T10:43:09.985Z,96681.53
2023-07-04T10:45:15.518Z,96677.06
2023-07-04T10:47:26.890Z,96689.38
2023-07-04T10:49:33.024Z,96684.06
2023-07-04T10:51:39.875Z,96671.00
2023-07-04T10:53:41.488Z,96683.59
2023-07-04T10:55:51.722Z,96679.47
2023-07-04T10:58:00.612Z,96683.97
2023-07-04T11:00:15.767Z,96680.06
2023-07-04T11:02:26.639Z,96687.41
2023-07-04T11:04:33.734Z,96676.59
2023-07-04T11:06:41.202Z,96665.88
2023-07-04T11:08:43.226Z,96682.59
2023-07-04T11:10:50.470Z,96681.28
2023-07-04T11:12:58.091Z,96673.06
2023-07-04T11:15:04.618Z,96674.59
2023-07-04T11:17:12.016Z,96668.53
2023-07-04T11:19:23.839Z,96680.28
2023-07-04T11:21:25.553Z,96666.94
2023-07-04T11:23:50.546Z,96657.47
2023-07-04T11:26:05.623Z,96675.56
2023-07-04T11:28:33.410Z,96665.72
2023-07-04T11:30:40.503Z,96658.69
2023-07-04T11:32:43.644Z,96665.97
2023-07-04T11:34:51.261Z,96669.78
2023-07-04T11:36:57.473Z,96668.41
2023-07-04T11:39:05.144Z,96652.94
2023-07-04T11:41:10.293Z,96654.00
2023-07-04T11:43:29.842Z,96648.69
2023-07-04T11:45:34.084Z,96659.88
2023-07-04T11:48:04.493Z,96666.19
2023-07-04T11:50:14.161Z,96651.66
2023-07-04T11:52:27.364Z,96667.78
2023-07-04T11:54:31.210Z,96666.34
2023-07-04T11:56:32.889Z,96665.63
2023-07-04T11:58:34.718Z,96654.00
2023-07-04T12:00:36.532Z,96655.88
2023-07-04T12:02:39.538Z,96658.13
2023-07-04T12:04:41.396Z,96668.94
2023-07-04T12:06:56.795Z,96667.84
2023-07-04T12:08:59.752Z,96657.56
2023-07-04T12:11:24.215Z,96657.56
2023-07-04T12:13:28.421Z,96652.22
2023-07-04T12:15:33.120Z,96657.53
2023-07-04T12:17:42.597Z,96663.78
2023-07-04T12:19:44.385Z,96655.09
2023-07-04T12:21:50.472Z,96644.56
2023-07-04T12:23:52.058Z,96648.00
2023-07-04T12:25:56.499Z,96645.94
2023-07-04T12:27:59.585Z,96645.28
2023-07-04T12:30:04.312Z,96633.59
2023-07-04T12:32:15.253Z,96635.13
2023-07-04T12:34:25.504Z,96645.50
2023-07-04T12:36:34.949Z,96641.31
2023-07-04T12:38:56.483Z,96624.28
2023-07-04T12:40:59.053Z,96638.25
2023-07-04T12:45:11.314Z,96632.25
2023-07-04T12:47:21.158Z,96628.22
2023-07-04T12:51:31.360Z,96633.78
2023-07-04T12:53:34.413Z,96633.88
2023-07-04T12:55:38.584Z,96639.84
2023-07-04T12:57:40.482Z,96642.28
2023-07-04T12:59:43.406Z,96642.72
2023-07-04T13:01:45.056Z,96638.44
2023-07-04T13:03:46.963Z,96635.94
2023-07-04T13:05:52.204Z,96628.41
2023-07-04T13:07:54.115Z,96628.91
2023-07-04T13:09:58.009Z,96616.44
2023-07-04T13:12:00.764Z,96618.84
2023-07-04T13:14:08.236Z,96615.84
2023-07-04T13:16:29.487Z,96613.63
2023-07-04T13:18:34.464Z,96620.09
2023-07-04T13:20:41.365Z,96608.06
2023-07-04T13:23:45.611Z,96615.72
2023-07-04T13:27:26.058Z,96610.31
2023-07-04T13:33:38.703Z,96617.13
2023-07-04T13:35:40.760Z,96612.41
2023-07-04T13:39:52.923Z,96608.19
2023-07-04T13:41:57.543Z,96604.09
2023-07-04T13:46:05.633Z,96607.25
2023-07-04T13:48:07.976Z,96596.53
2023-07-04T13:50:15.149Z,96612.16
2023-07-04T13:52:16.819Z,96591.88
2023-07-04T13:54:18.377Z,96598.41
2023-07-04T13:56:21.034Z,96600.47
2023-07-04T13:58:22.678Z,96597.22
2023-07-04T14:00:33.999Z,96597.88
2023-07-04T14:06:53.232Z,96592.88
2023-07-04T14:08:55.123Z,96590.00
2023-07-04T14:11:06.320Z,96585.81
2023-07-04T14:13:08.653Z,96569.50
2023-07-04T14:21:25.104Z,96589.47
2023-07-04T14:23:26.816Z,96576.00
2023-07-04T14:25:28.375Z,96571.25
2023-07-04T14:27:38.624Z,96572.13
2023-07-04T14:29:41.431Z,96572.63
2023-07-04T14:31:43.243Z,96570.94
2023-07-04T14:33:44.990Z,96555.19
2023-07-04T14:35:47.537Z,96550.09
2023-07-04T14:37:51.492Z,96566.34
2023-07-04T14:39:55.160Z,96558.56
2023-07-04T14:44:04.628Z,96550.53
2023-07-04T14:46:08.079Z,96558.19
2023-07-04T14:48:10.163Z,96543.50
2023-07-04T14:50:12.704Z,96545.09
2023-07-04T14:52:14.567Z,96540.63
2023-07-04T14:54:16.767Z,96546.38
2023-07-04T14:56:18.388Z,96541.47
2023-07-04T14:58:20.401Z,96528.53
2023-07-04T15:00:23.369Z,96523.63
2023-07-04T15:02:25.073Z,96529.91
2023-07-04T15:04:27.932Z,96538.56
2023-07-04T15:06:31.273Z,96527.69
2023-07-04T15:08:33.861Z,96525.75
2023-07-04T15:10:35.549Z,96514.94
2023-07-04T15:12:37.259Z,96514.19
2023-07-04T15:14:39.693Z,96512.72
2023-07-04T15:16:41.315Z,96505.47
2023-07-04T15:18:42.981Z,96513.13
2023-07-04T15:20:44.628Z,96513.19
2023-07-04T15:22:46.523Z,96517.00
2023-07-04T15:24:48.144Z,96519.19
2023-07-04T15:26:49.774Z,96498.59
2023-07-04T15:28:52.487Z,96512.91
2023-07-04T15:30:56.405Z,96511.50
2023-07-04T15:32:58.549Z,96513.25
2023-07-04T15:35:00.194Z,96512.44
2023-07-04T15:37:11.082Z,96503.47
2023-07-04T15:39:13.255Z,96502.19
2023-07-04T15:41:14.918Z,96501.25
2023-07-04T15:43:17.122Z,96495.88
2023-07-04T15:45:20.638Z,96494.50
2023-07-04T15:47:22.257Z,96498.59
2023-07-04T15:49:23.865Z,96488.63
2023-07-04T15:51:25.921Z,96492.47
2023-07-04T15:53:28.898Z,96488.81
2023-07-04T15:55:31.965Z,96484.59
2023-07-04T15:57:33.538Z,96485.81
2023-07-04T15:59:35.332Z,96490.78
2023-07-04T16:01:37.481Z,96486.66
2023-07-04T16:03:39.586Z,96479.63
2023-07-04T16:05:45.266Z,96481.72
2023-07-04T16:07:47.321Z,96471.19
2023-07-04T16:09:50.513Z,96474.63
2023-07-04T16:11:53.367Z,96471.31
2023-07-04T16:13:55.097Z,96470.63
2023-07-04T16:15:57.473Z,96458.03
2023-07-04T16:18:00.527Z,96459.91
2023-07-04T16:20:02.197Z,96469.13
2023-07-04T16:22:04.114Z,96458.50
2023-07-04T16:24:06.242Z,96452.50
2023-07-04T16:26:09.173Z,96456.34
2023-07-04T16:28:12.370Z,96456.25
2023-07-04T16:30:14.819Z,96454.25
2023-07-04T16:32:16.370Z,96461.06
2023-07-04T16:34:18.150Z,96463.38
2023-07-04T16:36:19.700Z,96460.38
2023-07-04T16:38:24.305Z,96460.53
2023-07-04T16:40:26.349Z,96456.91
2023-07-04T16:42:28.001Z,96453.31
2023-07-04T16:44:31.890Z,96452.25
2023-07-04T16:46:33.586Z,96456.53
2023-07-04T16:48:35.884Z,96454.38
2023-07-04T16:50:40.668Z,96455.72
2023-07-04T16:52:42.227Z,96444.44
2023-07-04T16:54:43.884Z,96445.75
2023-07-04T16:56:45.496Z,96439.84
2023-07-04T16:58:47.640Z,96448.50
2023-07-04T17:00:49.190Z,96446.94
2023-07-04T17:02:51.663Z,96451.56
2023-07-04T17:04:53.309Z,96445.75
2023-07-04T17:06:55.452Z,96452.59
2023-07-04T17:08:57.816Z,96452.03
2023-07-04T17:10:59.514Z,96456.50
2023-07-04T17:13:02.193Z,96459.91
2023-07-04T17:15:04.861Z,96442.97
2023-07-04T17:17:06.716Z,96449.28
2023-07-04T17:19:08.240Z,96455.06
2023-07-04T17:21:10.519Z,96454.09
2023-07-04T17:23:12.502Z,96452.19
2023-07-04T17:25:14.974Z,96446.91
2023-07-04T17:27:16.970Z,96453.47
2023-07-04T17:29:19.026Z,96457.44
2023-07-04T17:31:20.671Z,96455.47
2023-07-04T17:33:22.326Z,96453.47
2023-07-04T17:35:24.029Z,96458.22
2023-07-04T17:37:26.438Z,96452.69
2023-07-04T17:39:28.173Z,96454.94
2023-07-04T17:41:29.981Z,96455.38
2023-07-04T17:43:31.537Z,96451.94
2023-07-04T17:45:33.105Z,96452.41
2023-07-04T17:47:34.766Z,96452.94
2023-07-04T17:49:36.356Z,96447.94
2023-07-04T17:51:38.093Z,96450.69
2023-07-04T17:53:39.701Z,96451.00
2023-07-04T17:55:41.821Z,96451.53
2023-07-04T17:57:43.517Z,96452.78
2023-07-04T17:59:47.259Z,96439.97
2023-07-04T18:01:48.880Z,96444.78
2023-07-04T18:03:52.233Z,96455.06
2023-07-04T18:05:58.330Z,96445.72
2023-07-04T18:07:59.867Z,96442.69
2023-07-04T18:10:01.942Z,96441.94
2023-07-04T18:12:05.809Z,96448.78
2023-07-04T18:14:07.661Z,96440.53
2023-07-04T18:16:10.299Z,96441.56
2023-07-04T18:18:11.951Z,96438.03
2023-07-04T18:20:13.579Z,96432.00
2023-07-04T18:22:15.090Z,96440.56
2023-07-04T18:24:16.630Z,96427.03
2023-07-04T18:26:19.924Z,96427.50
2023-07-04T18:28:21.777Z,96425.47
2023-07-04T18:30:23.277Z,96435.84
2023-07-04T18:32:24.824Z,96430.56
2023-07-04T18:34:27.362Z,96426.88
2023-07-04T18:36:31.768Z,96430.97
2023-07-04T18:38:33.407Z,96426.66
2023-07-04T18:40:40.266Z,96427.22
2023-07-04T18:42:41.854Z,96431.00
2023-07-04T18:44:43.438Z,96429.53
2023-07-04T18:46:45.665Z,96428.56
2023-07-04T18:48:47.534Z,96432.34
2023-07-04T18:50:49.224Z,96427.59
2023-07-04T18:52:51.072Z,96425.84
2023-07-04T18:54:52.657Z,96426.13
2023-07-04T18:56:55.651Z,96425.09
2023-07-04T18:58:57.885Z,96420.06
2023-07-04T19:01:11.183Z,96422.59
2023-07-04T19:03:13.757Z,96421.09
2023-07-04T19:05:16.471Z,96419.84
2023-07-04T19:07:18.152Z,96420.53
2023-07-04T19:09:19.986Z,96411.75
2023-07-04T19:11:25.249Z,96424.00
2023-07-04T19:13:30.822Z,96426.22
2023-07-04T19:15:33.404Z,96421.94
2023-07-04T19:17:35.936Z,96421.63
2023-07-04T19:19:40.673Z,96417.53
2023-07-04T19:21:44.562Z,96418.78
2023-07-04T19:23:46.358Z,96423.72
2023-07-04T19:25:48.483Z,96413.91
2023-07-04T19:27:50.059Z,96409.81
2023-07-04T19:29:52.702Z,96413.97
2023-07-04T19:31:55.857Z,96424.91
2023-07-04T19:33:58.579Z,96416.50
2023-07-04T19:36:00.953Z,96409.91
2023-07-04T19:38:02.836Z,96413.78
2023-07-04T19:40:04.939Z,96408.47
2023-07-04T19:42:07.083Z,96408.41
2023-07-04T19:44:08.626Z,96406.09
2023-07-04T19:46:10.322Z,96416.28
2023-07-04T19:48:12.034Z,96413.47
2023-07-04T19:50:15.085Z,96417.91
2023-07-04T19:52:16.717Z,96411.28
2023-07-04T19:54:19.009Z,96411.44
2023-07-04T19:56:27.794Z,96424.38
2023-07-04T19:58:29.551Z,96424.66
2023-07-04T20:00:31.278Z,96423.00
2023-07-04T20:02:33.799Z,96430.56
2023-07-04T20:04:35.392Z,96424.66
2023-07-04T20:06:39.226Z,96418.09
2023-07-04T20:08:42.564Z,96416.25
2023-07-04T20:10:44.117Z,96420.16
2023-07-04T20:12:46.152Z,96419.41
2023-07-04T20:14:49.106Z,96417.91
2023-07-04T20:16:51.092Z,96419.44
2023-07-04T20:18:53.298Z,96415.25
2023-07-04T20:20:58.744Z,96414.00
2023-07-04T20:23:00.480Z,96400.84
2023-07-04T20:25:02.135Z,96407.84
2023-07-04T20:27:04.282Z,96399.78
2023-07-04T20:29:05.827Z,96399.63
2023-07-04T20:31:07.434Z,96400.50
2023-07-04T20:33:09.600Z,96399.44
2023-07-04T20:35:11.484Z,96397.03
2023-07-04T20:37:13.065Z,96400.50
2023-07-04T20:39:14.670Z,96395.09
2023-07-04T20:41:16.970Z,96399.88
2023-07-04T20:43:19.819Z,96398.34
2023-07-04T20:45:22.041Z,96401.28
2023-07-04T20:47:23.997Z,96400.13
2023-07-04T20:49:25.607Z,96406.66
2023-07-04T20:51:27.138Z,96407.97
2023-07-04T20:53:28.880Z,96396.56
2023-07-04T20:55:30.877Z,96401.00
2023-07-04T20:57:32.472Z,96405.41
2023-07-04T20:59:35.100Z,96402.19
2023-07-04T21:01:36.803Z,96401.00
2023-07-04T21:03:39.022Z,96389.47
2023-07-04T21:05:40.924Z,96396.88
2023-07-04T21:07:43.973Z,96394.28
2023-07-04T21:09:46.320Z,96389.22
2023-07-04T21:11:49.391Z,96388.41
2023-07-04T21:13:50.972Z,96385.41
2023-07-04T21:15:53.017Z,96387.72
2023-07-04T21:17:56.382Z,96395.41
2023-07-04T21:19:59.549Z,96392.38
2023-07-04T21:22:01.062Z,96387.38
2023-07-04T21:24:02.746Z,96381.69
2023-07-04T21:26:08.721Z,96385.22
2023-07-04T21:28:10.460Z,96384.16
2023-07-04T21:30:12.484Z,96380.16
2023-07-04T21:32:14.079Z,96382.78
2023-07-04T21:34:18.604Z,96382.16
2023-07-04T21:36:20.130Z,96380.47
2023-07-04T21:38:21.763Z,96384.84
2023-07-04T21:40:23.433Z,96382.84
2023-07-04T21:42:25.072Z,96376.66
2023-07-04T21:44:26.738Z,96380.63
2023-07-04T21:46:28.318Z,96377.13
2023-07-04T21:48:31.105Z,96373.44
2023-07-04T21:50:33.177Z,96378.34
2023-07-04T21:52:35.370Z,96381.50
2023-07-04T21:54:36.876Z,96382.31
2023-07-04T21:56:38.569Z,96386.00
2023-07-04T21:58:40.125Z,96387.56
2023-07-04T22:00:41.823Z,96382.84
2023-07-04T22:02:43.602Z,96389.53
2023-07-04T22:04:45.676Z,96382.34
2023-07-04T22:06:47.475Z,96374.09
2023-07-04T22:08:49.553Z,96371.44
2023-07-04T22:10:57.301Z,96373.53
2023-07-04T22:12:58.993Z,96366.72
2023-07-04T22:15:00.799Z,96355.78
2023-07-04T22:17:02.425Z,96357.19
2023-07-04T22:19:04.032Z,96365.28
2023-07-04T22:21:08.872Z,96354.69
2023-07-04T22:23:10.984Z,96354.44
2023-07-04T22:25:12.709Z,96352.19
2023-07-04T22:27:14.266Z,96348.13
2023-07-04T22:29:15.914Z,96346.13
2023-07-04T22:31:18.822Z,96340.38
2023-07-04T22:33:20.758Z,96340.00
2023-07-04T22:35:22.355Z,96335.50
2023-07-04T22:37:24.206Z,96339.75
2023-07-04T22:39:27.932Z,96336.06
2023-07-04T22:41:30.087Z,96336.75
2023-07-04T22:43:31.594Z,96332.06
2023-07-04T22:45:33.752Z,96329.31
2023-07-04T22:47:35.483Z,96321.09
2023-07-04T22:49:37.196Z,96333.06
2023-07-04T22:51:39.392Z,96327.81
2023-07-04T22:53:41.105Z,96330.06
2023-07-04T22:55:45.779Z,96328.16
2023-07-04T22:57:47.321Z,96320.69
2023-07-04T22:59:48.912Z,96319.19
2023-07-04T23:01:50.529Z,96318.44
2023-07-04T23:03:52.232Z,96324.88
2023-07-04T23:05:54.073Z,96321.06
2023-07-04T23:07:55.869Z,96322.97
2023-07-04T23:09:57.449Z,96322.34
2023-07-04T23:12:04.370Z,96319.88
2023-07-04T23:14:06.712Z,96311.72
2023-07-04T23:16:10.156Z,96323.16
2023-07-04T23:18:12.174Z,96320.63
2023-07-04T23:20:14.411Z,96324.56
2023-07-04T23:22:16.477Z,96316.38
2023-07-04T23:24:18.052Z,96320.50
2023-07-04T23:26:23.443Z,96316.47
2023-07-04T23:28:25.062Z,96310.06
2023-07-04T23:30:26.673Z,96310.06
2023-07-04T23:32:28.631Z,96310.72
2023-07-04T23:34:30.281Z,96310.44
2023-07-04T23:36:32.014Z,96304.28
2023-07-04T23:38:33.935Z,96305.44
2023-07-04T23:40:35.570Z,96302.91
2023-07-04T23:42:37.194Z,96294.41
2023-07-04T23:44:38.799Z,96301.94
2023-07-04T23:46:40.634Z,96290.44
2023-07-04T23:48:42.812Z,96291.47
2023-07-04T23:50:44.304Z,96291.56
2023-07-04T23:52:46.157Z,96281.56
2023-07-04T23:54:47.777Z,96281.66
2023-07-04T23:56:49.398Z,96283.72
2023-07-04T23:58:50.988Z,96275.25
